createdAt,value
2018-02-27T00:00:34.051Z,43.90
2018-02-27T00:03:00.903Z,43.70
2018-02-27T00:05:26.921Z,44.30
2018-02-27T00:07:52.938Z,44.70
2018-02-27T00:10:18.986Z,44.00
2018-02-27T00:12:44.986Z,44.10
2018-02-27T00:15:11.743Z,44.10
2018-02-27T00:17:38.510Z,44.50
2018-02-27T00:20:07.612Z,44.50
2018-02-27T00:22:33.665Z,44.50
2018-02-27T00:24:59.668Z,44.20
2018-02-27T00:27:26.451Z,43.90
2018-02-27T00:29:52.457Z,44.60
2018-02-27T00:32:19.217Z,44.70
2018-02-27T00:34:46.939Z,44.30
2018-02-27T00:37:12.981Z,44.30
2018-02-27T00:39:39.004Z,44.20
2018-02-27T00:42:07.149Z,44.20
2018-02-27T00:44:33.376Z,44.20
2018-02-27T00:46:59.585Z,44.60
2018-02-27T00:49:25.801Z,44.30
2018-02-27T00:51:52.000Z,44.40
2018-02-27T00:54:18.192Z,44.10
2018-02-27T00:56:44.413Z,44.20
2018-02-27T00:59:11.333Z,44.00
2018-02-27T01:01:37.553Z,43.90
2018-02-27T01:04:03.730Z,43.80
2018-02-27T01:06:29.942Z,43.60
2018-02-27T01:08:56.192Z,43.70
2018-02-27T01:11:22.382Z,44.10
2018-02-27T01:13:48.607Z,44.30
2018-02-27T01:16:15.649Z,44.80
2018-02-27T01:18:41.848Z,44.60
2018-02-27T01:21:08.033Z,45.50
2018-02-27T01:23:34.288Z,45.90
2018-02-27T01:26:01.245Z,45.80
2018-02-27T01:28:27.453Z,45.80
2018-02-27T01:30:54.844Z,46.10
2018-02-27T01:33:21.040Z,46.40
2018-02-27T01:35:47.252Z,46.30
2018-02-27T01:38:13.452Z,45.70
2018-02-27T01:40:39.661Z,47.00
2018-02-27T01:43:05.859Z,46.40
2018-02-27T01:45:32.104Z,47.20
2018-02-27T01:47:59.024Z,46.50
2018-02-27T01:50:25.200Z,46.50
2018-02-27T01:52:51.429Z,46.50
2018-02-27T01:55:18.373Z,46.70
2018-02-27T01:57:44.608Z,46.60
2018-02-27T02:00:10.828Z,46.40
2018-02-27T02:02:37.024Z,46.60
2018-02-27T02:05:03.211Z,46.90
2018-02-27T02:07:29.418Z,47.30
2018-02-27T02:09:55.686Z,47.50
2018-02-27T02:12:21.892Z,48.10
2018-02-27T02:14:48.083Z,48.20
2018-02-27T02:17:14.292Z,48.60
2018-02-27T02:19:40.530Z,49.00
2018-02-27T02:22:06.720Z,48.50
2018-02-27T02:24:32.958Z,48.10
2018-02-27T02:26:59.152Z,48.20
2018-02-27T02:29:25.381Z,48.40
2018-02-27T02:31:51.589Z,48.90
2018-02-27T02:34:18.525Z,48.10
2018-02-27T02:36:44.725Z,48.10
2018-02-27T02:39:10.935Z,48.30
2018-02-27T02:41:37.140Z,48.00
2018-02-27T02:44:03.332Z,47.70
2018-02-27T02:46:29.550Z,47.40
2018-02-27T02:48:56.492Z,48.00
2018-02-27T02:51:23.469Z,47.80
2018-02-27T02:53:50.452Z,48.10
2018-02-27T02:56:16.664Z,48.10
2018-02-27T02:58:42.839Z,48.40
2018-02-27T03:01:09.026Z,48.20
2018-02-27T03:03:35.996Z,47.90
2018-02-27T03:06:02.954Z,47.40
2018-02-27T03:08:29.151Z,47.40
2018-02-27T03:10:55.393Z,47.60
2018-02-27T03:13:21.613Z,47.70
2018-02-27T03:15:48.516Z,47.30
2018-02-27T03:18:14.723Z,47.10
2018-02-27T03:20:40.931Z,47.50
2018-02-27T03:23:07.184Z,47.70
2018-02-27T03:25:34.110Z,48.20
2018-02-27T03:28:01.048Z,49.10
2018-02-27T03:30:27.231Z,48.70
2018-02-27T03:32:53.409Z,49.50
2018-02-27T03:35:19.604Z,48.80
2018-02-27T03:37:46.544Z,50.40
2018-02-27T03:40:13.469Z,50.40
2018-02-27T03:42:39.681Z,50.20
2018-02-27T03:45:05.886Z,50.50
2018-02-27T03:47:32.117Z,50.10
2018-02-27T03:49:59.056Z,49.30
2018-02-27T03:52:25.254Z,49.30
2018-02-27T03:54:51.482Z,50.20
2018-02-27T03:57:17.692Z,51.40
2018-02-27T03:59:44.649Z,51.40
2018-02-27T04:02:10.864Z,51.30
2018-02-27T04:04:37.064Z,51.30
2018-02-27T04:07:03.273Z,50.90
2018-02-27T04:09:30.244Z,51.90
2018-02-27T04:11:57.315Z,52.20
2018-02-27T04:14:23.539Z,52.10
2018-02-27T04:16:49.824Z,51.40
2018-02-27T04:19:16.059Z,51.40
2018-02-27T04:21:42.251Z,51.30
2018-02-27T04:24:08.452Z,51.30
2018-02-27T04:26:34.657Z,51.10
2018-02-27T04:29:00.872Z,51.40
2018-02-27T04:31:27.067Z,52.00
2018-02-27T04:33:53.288Z,51.30
2018-02-27T04:36:19.548Z,51.30
2018-02-27T04:38:45.765Z,51.80
2018-02-27T04:41:11.972Z,52.90
2018-02-27T04:43:38.932Z,52.40
2018-02-27T04:46:05.153Z,52.20
2018-02-27T04:48:32.128Z,51.80
2018-02-27T04:50:59.780Z,52.70
2018-02-27T04:53:25.992Z,52.90
2018-02-27T04:55:52.224Z,52.20
2018-02-27T04:58:19.608Z,52.60
2018-02-27T05:00:46.517Z,52.00
2018-02-27T05:03:12.745Z,51.90
2018-02-27T05:05:38.974Z,52.50
2018-02-27T05:08:05.209Z,52.80
2018-02-27T05:10:31.419Z,52.40
2018-02-27T05:12:57.664Z,52.20
2018-02-27T05:15:23.845Z,52.00
2018-02-27T05:17:50.028Z,52.20
2018-02-27T05:20:16.233Z,52.90
2018-02-27T05:22:42.443Z,52.50
2018-02-27T05:25:08.650Z,51.80
2018-02-27T05:27:34.891Z,52.00
2018-02-27T05:30:01.115Z,52.20
2018-02-27T05:32:27.332Z,52.50
2018-02-27T05:34:53.558Z,52.40
2018-02-27T05:37:19.742Z,52.20
2018-02-27T05:39:45.923Z,52.50
2018-02-27T05:42:12.153Z,53.10
2018-02-27T05:44:38.416Z,54.30
2018-02-27T05:47:04.685Z,55.90
2018-02-27T05:49:30.944Z,56.70
2018-02-27T05:51:57.880Z,57.70
2018-02-27T05:54:24.184Z,57.70
2018-02-27T05:56:50.398Z,57.80
2018-02-27T05:59:16.596Z,58.00
2018-02-27T06:01:44.313Z,57.80
2018-02-27T06:04:10.581Z,57.00
2018-02-27T06:06:36.775Z,57.00
2018-02-27T06:09:03.737Z,56.40
2018-02-27T06:11:29.984Z,56.30
2018-02-27T06:13:57.105Z,56.30
2018-02-27T06:16:30.433Z,56.50
2018-02-27T06:18:57.409Z,56.40
2018-02-27T06:21:24.353Z,56.00
2018-02-27T06:23:50.600Z,56.00
2018-02-27T06:26:16.790Z,56.40
2018-02-27T06:28:42.991Z,57.20
2018-02-27T06:31:09.322Z,57.60
2018-02-27T06:33:35.515Z,57.50
2018-02-27T06:36:01.717Z,57.70
2018-02-27T06:38:27.962Z,56.90
2018-02-27T06:40:54.877Z,57.30
2018-02-27T06:43:21.084Z,56.60
2018-02-27T06:45:47.336Z,56.80
2018-02-27T06:48:13.582Z,56.90
2018-02-27T06:50:39.836Z,56.50
2018-02-27T06:53:06.157Z,58.70
2018-02-27T06:55:32.433Z,58.60
2018-02-27T06:57:59.430Z,59.80
2018-02-27T07:00:25.729Z,59.70
2018-02-27T07:02:51.965Z,59.50
2018-02-27T07:05:18.908Z,60.30
2018-02-27T07:07:45.119Z,59.80
2018-02-27T07:10:12.052Z,58.70
2018-02-27T07:12:39.053Z,58.10
2018-02-27T07:15:05.277Z,58.00
2018-02-27T07:17:31.504Z,58.30
2018-02-27T07:19:57.708Z,57.30
2018-02-27T07:22:23.911Z,57.00
2018-02-27T07:24:50.101Z,56.80
2018-02-27T07:27:17.077Z,55.80
2018-02-27T07:29:43.309Z,55.90
2018-02-27T07:32:09.520Z,54.90
2018-02-27T07:34:35.860Z,54.60
2018-02-27T07:37:02.052Z,54.60
2018-02-27T07:39:28.969Z,53.60
2018-02-27T07:41:55.169Z,53.50
2018-02-27T07:44:21.444Z,53.70
2018-02-27T07:46:47.688Z,54.00
2018-02-27T07:49:13.898Z,53.90
2018-02-27T07:51:40.112Z,54.60
2018-02-27T07:54:07.038Z,54.50
2018-02-27T07:56:33.244Z,54.40
2018-02-27T07:59:00.280Z,54.90
2018-02-27T08:01:26.533Z,53.40
2018-02-27T08:03:52.791Z,53.20
2018-02-27T08:06:19.046Z,52.30
2018-02-27T08:08:45.263Z,51.80
2018-02-27T08:11:11.480Z,50.20
2018-02-27T08:13:37.783Z,49.10
2018-02-27T08:16:03.992Z,49.10
2018-02-27T08:18:30.201Z,47.70
2018-02-27T08:20:56.431Z,46.90
2018-02-27T08:23:25.537Z,45.60
2018-02-27T08:25:52.484Z,43.80
2018-02-27T08:28:19.441Z,42.00
2018-02-27T08:30:46.430Z,39.70
2018-02-27T08:33:12.632Z,39.60
2018-02-27T08:35:39.609Z,35.50
2018-02-27T08:38:05.824Z,35.50
2018-02-27T08:40:32.752Z,34.00
2018-02-27T08:42:58.974Z,34.00
2018-02-27T08:45:25.168Z,31.50
2018-02-27T08:47:52.840Z,29.50
2018-02-27T08:50:19.088Z,30.00
2018-02-27T08:52:46.063Z,28.60
2018-02-27T08:55:12.296Z,28.60
2018-02-27T08:57:38.524Z,27.50
2018-02-27T09:00:04.704Z,28.00
2018-02-27T09:02:30.930Z,26.40
2018-02-27T09:04:57.882Z,25.80
2018-02-27T09:07:24.097Z,25.80
2018-02-27T09:09:51.057Z,26.50
2018-02-27T09:12:18.061Z,27.60
2018-02-27T09:14:44.295Z,27.50
2018-02-27T09:17:11.239Z,25.30
2018-02-27T09:19:37.429Z,25.30
2018-02-27T09:22:03.645Z,24.10
2018-02-27T09:24:29.849Z,23.90
2018-02-27T09:26:56.062Z,24.90
2018-02-27T09:29:23.849Z,24.70
2018-02-27T09:31:50.083Z,24.30
2018-02-27T09:34:16.312Z,23.70
2018-02-27T09:36:42.588Z,24.10
2018-02-27T09:39:08.770Z,24.10
2018-02-27T09:41:34.988Z,23.80
2018-02-27T09:44:01.183Z,23.60
2018-02-27T09:46:29.637Z,23.10
2018-02-27T09:48:55.864Z,22.90
2018-02-27T09:51:22.080Z,23.50
2018-02-27T09:53:49.905Z,22.60
2018-02-27T09:56:16.104Z,22.50
2018-02-27T09:58:43.085Z,21.50
2018-02-27T10:01:14.425Z,20.60
2018-02-27T10:03:41.360Z,19.60
2018-02-27T10:06:07.561Z,19.60
2018-02-27T10:08:33.745Z,19.20
2018-02-27T10:10:59.955Z,19.80
2018-02-27T10:13:26.147Z,20.90
2018-02-27T10:15:52.357Z,20.80
2018-02-27T10:18:20.064Z,20.30
2018-02-27T10:20:46.259Z,19.60
2018-02-27T10:23:12.485Z,21.30
2018-02-27T10:25:39.408Z,21.40
2018-02-27T10:28:05.648Z,21.30
2018-02-27T10:30:32.608Z,21.10
2018-02-27T10:32:58.871Z,20.90
2018-02-27T10:35:26.488Z,19.70
2018-02-27T10:37:52.686Z,21.60
2018-02-27T10:40:18.905Z,20.20
2018-02-27T10:42:45.160Z,19.60
2018-02-27T10:45:11.358Z,19.30
2018-02-27T10:47:38.291Z,20.40
2018-02-27T10:50:04.480Z,20.40
2018-02-27T10:52:32.233Z,20.90
2018-02-27T10:55:00.227Z,19.20
2018-02-27T10:57:26.433Z,20.20
2018-02-27T10:59:53.373Z,21.10
2018-02-27T11:02:19.577Z,20.70
2018-02-27T11:04:45.790Z,19.20
2018-02-27T11:07:11.984Z,19.50
2018-02-27T11:09:38.940Z,19.20
2018-02-27T11:12:10.193Z,19.10
2018-02-27T11:14:36.385Z,19.30
2018-02-27T11:17:02.654Z,19.20
2018-02-27T11:19:28.830Z,19.30
2018-02-27T11:21:55.768Z,19.30
2018-02-27T11:24:22.040Z,19.30
2018-02-27T11:26:48.300Z,19.30
2018-02-27T11:29:19.936Z,20.50
2018-02-27T11:31:46.892Z,19.20
2018-02-27T11:34:13.100Z,19.50
2018-02-27T11:36:39.292Z,20.00
2018-02-27T11:39:05.466Z,19.30
2018-02-27T11:41:32.406Z,19.40
2018-02-27T11:43:59.372Z,19.00
2018-02-27T11:46:29.772Z,19.00
2018-02-27T11:48:55.972Z,20.90
2018-02-27T11:51:22.917Z,20.00
2018-02-27T11:53:49.161Z,20.00
2018-02-27T11:56:16.112Z,20.40
2018-02-27T11:58:42.342Z,20.40
2018-02-27T12:01:08.572Z,22.30
2018-02-27T12:03:35.525Z,20.20
2018-02-27T12:06:05.003Z,20.20
2018-02-27T12:08:31.221Z,20.40
2018-02-27T12:10:57.448Z,21.10
2018-02-27T12:13:23.642Z,19.70
2018-02-27T12:15:50.085Z,20.90
2018-02-27T12:18:16.252Z,19.30
2018-02-27T12:20:43.202Z,19.60
2018-02-27T12:23:12.277Z,19.60
2018-02-27T12:25:40.506Z,18.70
2018-02-27T12:28:07.440Z,20.30
2018-02-27T12:30:33.463Z,20.20
2018-02-27T12:32:59.677Z,20.10
2018-02-27T12:35:25.909Z,20.10
2018-02-27T12:37:52.083Z,19.70
2018-02-27T12:40:18.286Z,20.60
2018-02-27T12:42:46.868Z,20.50
2018-02-27T12:45:13.848Z,20.50
2018-02-27T12:47:40.075Z,20.50
2018-02-27T12:50:06.296Z,21.00
2018-02-27T12:52:32.486Z,21.20
2018-02-27T12:54:58.716Z,20.30
2018-02-27T12:57:24.933Z,20.10
2018-02-27T12:59:57.306Z,21.30
2018-02-27T13:02:23.345Z,21.10
2018-02-27T13:04:50.162Z,23.10
2018-02-27T13:07:16.213Z,23.10
2018-02-27T13:09:42.225Z,24.00
2018-02-27T13:12:09.026Z,24.10
2018-02-27T13:14:35.781Z,24.30
2018-02-27T13:17:05.301Z,24.30
2018-02-27T13:19:31.553Z,24.50
2018-02-27T13:21:57.726Z,23.20
2018-02-27T13:24:24.682Z,23.90
2018-02-27T13:26:50.904Z,23.90
2018-02-27T13:29:17.857Z,24.00
2018-02-27T13:31:44.092Z,24.00
2018-02-27T13:34:15.096Z,24.20
2018-02-27T13:36:42.037Z,23.60
2018-02-27T13:39:08.969Z,22.30
2018-02-27T13:41:35.008Z,22.30
2018-02-27T13:44:01.236Z,22.30
2018-02-27T13:46:27.458Z,22.10
2018-02-27T13:48:53.680Z,21.80
2018-02-27T13:51:21.699Z,22.50
2018-02-27T13:53:47.881Z,22.60
2018-02-27T13:56:14.861Z,23.40
2018-02-27T13:58:41.041Z,23.30
2018-02-27T14:01:07.227Z,23.00
2018-02-27T14:03:33.447Z,22.80
2018-02-27T14:06:00.333Z,21.80
2018-02-27T14:08:27.315Z,21.70
2018-02-27T14:10:55.427Z,21.70
2018-02-27T14:13:22.391Z,20.70
2018-02-27T14:15:49.629Z,20.60
2018-02-27T14:18:15.725Z,20.60
2018-02-27T14:20:41.753Z,19.40
2018-02-27T14:23:07.985Z,19.90
2018-02-27T14:25:34.922Z,20.90
2018-02-27T14:28:01.100Z,20.90
2018-02-27T14:30:30.441Z,22.10
2018-02-27T14:32:56.614Z,23.00
2018-02-27T14:35:22.831Z,24.40
2018-02-27T14:37:49.013Z,23.40
2018-02-27T14:40:15.935Z,21.70
2018-02-27T14:42:42.272Z,21.70
2018-02-27T14:45:08.497Z,21.20
2018-02-27T14:47:40.281Z,20.10
2018-02-27T14:50:06.508Z,20.10
2018-02-27T14:52:32.924Z,19.80
2018-02-27T14:54:59.116Z,19.40
2018-02-27T14:57:25.355Z,18.60
2018-02-27T14:59:51.615Z,19.40
2018-02-27T15:02:17.856Z,18.00
2018-02-27T15:04:48.554Z,18.10
2018-02-27T15:07:14.765Z,18.20
2018-02-27T15:09:41.733Z,18.90
2018-02-27T15:12:08.669Z,19.70
2018-02-27T15:14:34.868Z,19.70
2018-02-27T15:17:01.131Z,19.30
2018-02-27T15:19:27.364Z,19.80
2018-02-27T15:21:53.605Z,20.00
2018-02-27T15:24:19.817Z,20.40
2018-02-27T15:26:46.754Z,22.10
2018-02-27T15:29:13.041Z,22.10
2018-02-27T15:31:39.324Z,23.00
2018-02-27T15:34:05.505Z,23.30
2018-02-27T15:36:32.457Z,23.80
2018-02-27T15:38:59.509Z,23.80
2018-02-27T15:41:25.771Z,24.10
2018-02-27T15:43:52.001Z,24.50
2018-02-27T15:46:19.996Z,25.50
2018-02-27T15:48:50.525Z,25.40
2018-02-27T15:51:17.436Z,26.30
2018-02-27T15:53:43.679Z,26.10
2018-02-27T15:56:09.910Z,26.40
2018-02-27T15:58:36.077Z,25.70
2018-02-27T16:01:02.301Z,25.70
2018-02-27T16:03:28.531Z,25.70
2018-02-27T16:05:54.771Z,26.00
2018-02-27T16:08:21.012Z,25.50
2018-02-27T16:10:47.260Z,24.20
2018-02-27T16:13:15.422Z,23.80
2018-02-27T16:15:41.642Z,23.90
2018-02-27T16:18:07.952Z,23.40
2018-02-27T16:20:34.221Z,22.10
2018-02-27T16:23:00.484Z,22.20
2018-02-27T16:25:26.701Z,22.80
2018-02-27T16:27:52.983Z,22.40
2018-02-27T16:30:19.198Z,22.90
2018-02-27T16:32:45.392Z,22.70
2018-02-27T16:35:11.609Z,23.20
2018-02-27T16:37:37.776Z,23.80
2018-02-27T16:40:03.989Z,24.20
2018-02-27T16:42:30.924Z,23.70
2018-02-27T16:44:57.870Z,24.50
2018-02-27T16:47:24.860Z,24.70
2018-02-27T16:49:56.003Z,24.90
2018-02-27T16:52:22.957Z,25.00
2018-02-27T16:54:50.320Z,25.20
2018-02-27T16:57:17.269Z,26.30
2018-02-27T16:59:44.230Z,25.90
2018-02-27T17:02:10.544Z,25.80
2018-02-27T17:04:37.113Z,25.40
2018-02-27T17:07:03.352Z,25.60
2018-02-27T17:09:29.573Z,24.60
2018-02-27T17:11:55.842Z,25.40
2018-02-27T17:14:22.281Z,25.50
2018-02-27T17:16:48.508Z,25.70
2018-02-27T17:19:14.724Z,25.70
2018-02-27T17:21:41.705Z,25.40
2018-02-27T17:24:08.707Z,25.60
2018-02-27T17:26:34.985Z,25.50
2018-02-27T17:29:01.956Z,26.30
2018-02-27T17:31:28.188Z,26.50
2018-02-27T17:33:54.377Z,25.80
2018-02-27T17:36:20.641Z,26.80
2018-02-27T17:38:46.832Z,27.00
2018-02-27T17:41:13.020Z,26.80
2018-02-27T17:43:39.319Z,26.80
2018-02-27T17:46:08.581Z,26.80
2018-02-27T17:48:34.868Z,26.90
2018-02-27T17:51:01.100Z,26.80
2018-02-27T17:53:27.305Z,26.70
2018-02-27T17:55:54.416Z,26.90
2018-02-27T17:58:20.615Z,26.90
2018-02-27T18:00:46.905Z,26.90
2018-02-27T18:03:13.241Z,27.00
2018-02-27T18:05:39.463Z,27.30
2018-02-27T18:08:05.653Z,28.20
2018-02-27T18:10:31.868Z,27.80
2018-02-27T18:12:58.069Z,28.80
2018-02-27T18:15:25.150Z,28.40
2018-02-27T18:17:51.349Z,28.80
2018-02-27T18:20:17.702Z,28.90
2018-02-27T18:22:44.733Z,29.10
2018-02-27T18:25:11.827Z,29.60
2018-02-27T18:27:38.778Z,29.40
2018-02-27T18:30:05.169Z,29.30
2018-02-27T18:32:31.364Z,29.20
2018-02-27T18:34:57.576Z,28.90
2018-02-27T18:37:24.570Z,29.40
2018-02-27T18:39:50.818Z,29.30
2018-02-27T18:42:17.758Z,29.10
2018-02-27T18:44:43.992Z,29.10
2018-02-27T18:47:10.933Z,29.50
2018-02-27T18:49:37.173Z,29.50
2018-02-27T18:52:04.109Z,29.40
2018-02-27T18:54:31.058Z,29.20
2018-02-27T18:56:57.394Z,29.10
2018-02-27T18:59:23.594Z,29.20
2018-02-27T19:01:49.809Z,28.40
2018-02-27T19:04:17.793Z,28.80
2018-02-27T19:06:44.084Z,28.70
2018-02-27T19:09:10.409Z,29.80
2018-02-27T19:11:36.714Z,30.50
2018-02-27T19:14:03.732Z,31.00
2018-02-27T19:16:30.096Z,31.90
2018-02-27T19:18:56.339Z,32.20
2018-02-27T19:21:26.858Z,33.60
2018-02-27T19:23:53.859Z,34.80
2018-02-27T19:26:20.161Z,34.70
2018-02-27T19:28:46.465Z,35.40
2018-02-27T19:31:12.764Z,35.90
2018-02-27T19:33:39.063Z,36.30
2018-02-27T19:36:05.401Z,36.90
2018-02-27T19:38:31.722Z,36.70
2018-02-27T19:40:58.043Z,36.80
2018-02-27T19:43:28.996Z,39.10
2018-02-27T19:45:55.323Z,39.00
2018-02-27T19:48:21.691Z,38.80
2018-02-27T19:50:49.580Z,39.20
2018-02-27T19:53:17.418Z,39.50
2018-02-27T19:55:45.824Z,40.40
2018-02-27T19:58:12.174Z,40.20
2018-02-27T20:00:38.507Z,40.00
2018-02-27T20:03:05.793Z,41.20
2018-02-27T20:05:32.822Z,43.20
2018-02-27T20:07:59.173Z,43.20
2018-02-27T20:10:30.465Z,46.30
2018-02-27T20:12:58.225Z,47.50
2018-02-27T20:15:24.582Z,49.40
2018-02-27T20:17:57.881Z,50.20
2018-02-27T20:20:25.490Z,50.40
2018-02-27T20:23:02.710Z,50.10
2018-02-27T20:25:29.341Z,51.30
2018-02-27T20:27:55.767Z,50.80
2018-02-27T20:30:22.111Z,51.40
2018-02-27T20:32:48.402Z,51.90
2018-02-27T20:35:15.059Z,53.20
2018-02-27T20:37:41.358Z,53.90
2018-02-27T20:40:07.725Z,53.30
2018-02-27T20:42:35.539Z,53.40
2018-02-27T20:45:02.718Z,53.80
2018-02-27T20:47:28.864Z,54.00
2018-02-27T20:49:55.175Z,55.00
2018-02-27T20:52:21.450Z,54.80
2018-02-27T20:54:47.724Z,55.50
2018-02-27T20:57:16.415Z,55.60
2018-02-27T20:59:42.575Z,54.90
2018-02-27T21:02:08.662Z,54.10
2018-02-27T21:04:34.754Z,55.30
2018-02-27T21:07:00.859Z,55.10
2018-02-27T21:09:27.138Z,54.80
2018-02-27T21:11:53.417Z,54.80
2018-02-27T21:14:19.700Z,55.10
2018-02-27T21:16:46.042Z,54.30
2018-02-27T21:19:12.381Z,54.00
2018-02-27T21:21:38.656Z,54.10
2018-02-27T21:24:04.946Z,54.10
2018-02-27T21:26:32.039Z,54.10
2018-02-27T21:28:58.414Z,54.30
2018-02-27T21:31:24.713Z,56.20
2018-02-27T21:33:51.090Z,57.10
2018-02-27T21:36:17.474Z,57.80
2018-02-27T21:38:44.861Z,57.40
2018-02-27T21:41:21.166Z,57.10
2018-02-27T21:43:48.056Z,58.10
2018-02-27T21:46:14.161Z,58.00
2018-02-27T21:48:40.325Z,58.50
2018-02-27T21:51:12.075Z,57.80
2018-02-27T21:53:38.201Z,59.90
2018-02-27T21:56:04.427Z,60.20
2018-02-27T21:58:30.633Z,60.90
2018-02-27T22:00:56.707Z,60.90
2018-02-27T22:03:22.838Z,61.80
2018-02-27T22:05:48.985Z,61.30
2018-02-27T22:08:15.815Z,64.60
2018-02-27T22:10:42.007Z,64.60
2018-02-27T22:13:08.134Z,66.10
2018-02-27T22:15:34.228Z,69.30
2018-02-27T22:18:00.389Z,69.10
2018-02-27T22:20:27.304Z,71.90
2018-02-27T22:22:53.396Z,71.90
2018-02-27T22:25:19.498Z,73.20
2018-02-27T22:27:45.703Z,73.30
2018-02-27T22:30:11.758Z,72.60
2018-02-27T22:32:39.924Z,73.70
2018-02-27T22:35:06.001Z,74.20
2018-02-27T22:37:32.097Z,75.40
2018-02-27T22:39:58.202Z,74.30
2018-02-27T22:42:24.278Z,74.50
2018-02-27T22:44:50.338Z,74.10
2018-02-27T22:47:16.469Z,76.00
2018-02-27T22:49:42.741Z,77.30
2018-02-27T22:52:08.810Z,81.80
2018-02-27T22:54:34.902Z,85.90
2018-02-27T22:57:01.120Z,86.40
2018-02-27T22:59:27.327Z,88.80
2018-02-27T23:01:53.472Z,90.70
2018-02-27T23:04:19.663Z,91.20
2018-02-27T23:06:47.648Z,92.80
2018-02-27T23:09:17.912Z,93.00
2018-02-27T23:11:45.824Z,92.90
2018-02-27T23:14:12.138Z,93.40
2018-02-27T23:16:38.281Z,93.70
2018-02-27T23:19:04.370Z,95.10
2018-02-27T23:21:30.451Z,95.00
2018-02-27T23:24:00.752Z,95.20
2018-02-27T23:26:32.949Z,95.10
2018-02-27T23:28:59.286Z,94.90
2018-02-27T23:31:26.514Z,94.40
2018-02-27T23:33:54.468Z,93.90
2018-02-27T23:36:22.656Z,94.40
2018-02-27T23:38:48.995Z,94.60
2018-02-27T23:41:15.304Z,94.50
2018-02-27T23:43:41.614Z,94.70
2018-02-27T23:46:07.901Z,94.70
2018-02-27T23:48:34.146Z,93.80
2018-02-27T23:51:01.162Z,93.90
2018-02-27T23:53:27.386Z,93.90
2018-02-27T23:55:57.131Z,93.90
2018-02-27T23:58:23.381Z,93.90
